Buoy 47584

sailwx.info

Track history (hours):
 
Tides and Currents Weather Stations Pressure Air Temp Water Temp Dewpoint Dewpoint Depression Visibility Wind Speed Wind Dir Waves Ship Positions

Drifting buoy 47584

Last reported at 2018-Jun-22 06:06 UTC. Time now 2018-Jun-22 07:47 UTC.
Position N 19°50' W 038°10'.

Water temperature 24.2 ° C

Date/timePositionNaut miles runAvg speedWind from/ knotsBaromVisibWave heightAir tempDewpointWater temp
2018-Jun-22 06:06N 19°50' W 038°10'0 0.0 24.2
2018-Jun-22 06:00N 19°50' W 038°10'1 0.6 24.2
2018-Jun-22 05:05N 19°50' W 038°09'0 0.0 24.2
2018-Jun-22 05:00N 19°50' W 038°09'1 1.2 24.2
2018-Jun-22 04:04N 19°50' W 038°08'1 9.0 24.2
2018-Jun-22 04:00N 19°50' W 038°08'1 0.9 24.2
2018-Jun-22 03:05N 19°50' W 038°07'0 0.0 24.2
2018-Jun-22 03:00N 19°50' W 038°07'1 0.9 24.3
2018-Jun-22 02:05N 19°50' W 038°07'0 0.0 24.3
2018-Jun-22 02:00N 19°50' W 038°07'1 0.6 24.3
2018-Jun-22 01:04N 19°50' W 038°06'0 0.0 24.3
2018-Jun-22 01:00N 19°50' W 038°06'1 1.0 24.3
2018-Jun-22 00:08N 19°51' W 038°05'0 0.0 24.3
2018-Jun-22 00:00N 19°51' W 038°05'1 0.6 24.3
2018-Jun-21 23:00N 19°52' W 038°05'1 0.6 24.4
2018-Jun-21 22:05N 19°52' W 038°05'0 0.0 24.4
2018-Jun-21 22:00N 19°52' W 038°05'1 0.6 24.4
2018-Jun-21 21:04N 19°52' W 038°04'0 0.0 24.4
2018-Jun-21 21:00N 19°52' W 038°04'0 0.0 24.4
2018-Jun-21 20:05N 19°52' W 038°04'0 0.0 24.4
2018-Jun-21 20:00N 19°52' W 038°04'1 0.6 24.4
2018-Jun-21 19:06N 19°52' W 038°04'0 0.0 24.5
2018-Jun-21 19:00N 19°52' W 038°04'1 1.3 24.5
2018-Jun-21 18:06N 19°52' W 038°02'0 0.0 24.5
2018-Jun-21 18:00N 19°52' W 038°02'1 0.6 24.5
2018-Jun-21 17:04N 19°52' W 038°02'1 9.0 24.6
2018-Jun-21 17:00N 19°52' W 038°02'1 0.6 24.6
2018-Jun-21 16:05N 19°52' W 038°01'0 0.0 24.5
2018-Jun-21 16:00N 19°52' W 038°01'1 0.7 24.5
2018-Jun-21 15:08N 19°52' W 038°01'0 0.0 24.5
2018-Jun-21 15:00N 19°52' W 038°01'1 0.6 24.5
2018-Jun-21 14:04N 19°52' W 038°00'0 0.0 24.4
2018-Jun-21 14:00N 19°52' W 038°00'1 0.6 24.4
2018-Jun-21 13:04N 19°52' W 037°59'0 0.0 24.3
2018-Jun-21 13:00N 19°52' W 037°59'1 0.9 24.3
2018-Jun-21 12:04N 19°53' W 037°59'0 0.0 24.3
2018-Jun-21 12:00N 19°53' W 037°59'1 0.6 24.3
2018-Jun-21 11:05N 19°53' W 037°58'0 0.0 24.2
2018-Jun-21 11:00N 19°53' W 037°58'1 0.6 24.2
2018-Jun-21 10:05N 19°53' W 037°58'1 9.9 24.2
2018-Jun-21 10:00N 19°53' W 037°58'1 0.6 24.2
2018-Jun-21 09:00N 19°53' W 037°58'1 0.6 24.2
2018-Jun-21 08:05N 19°53' W 037°57'1 7.2 24.2
2018-Jun-21 08:00N 19°54' W 037°57'1 0.6 24.2
2018-Jun-21 07:05N 19°54' W 037°56'0 0.0 24.2
2018-Jun-21 07:00N 19°54' W 037°56'1 0.9 24.2
2018-Jun-21 06:06N 19°55' W 037°56'0 0.0 24.2
2018-Jun-21 06:00N 19°55' W 037°56'1 0.6 24.2
2018-Jun-21 05:04N 19°55' W 037°55'0 0.0 24.2
2018-Jun-21 05:00N 19°55' W 037°55'0 0.0 24.2
2018-Jun-21 04:04N 19°55' W 037°55'0 0.0 24.2
2018-Jun-21 04:00N 19°55' W 037°55'1 0.9 24.2
2018-Jun-21 03:04N 19°54' W 037°55'0 0.0 24.2
2018-Jun-21 03:00N 19°54' W 037°55'1 0.6 24.3
2018-Jun-21 02:04N 19°54' W 037°54'0 0.0 24.3
2018-Jun-21 02:00N 19°54' W 037°54'1 0.6 24.3
2018-Jun-21 01:00N 19°54' W 037°53'1 0.6 24.3
2018-Jun-21 00:00N 19°54' W 037°53'1 0.8 24.3
2018-Jun-20 23:00N 19°55' W 037°52'1 0.6 24.3
2018-Jun-20 22:00N 19°55' W 037°52'1 0.6 24.3
2018-Jun-20 21:00N 19°55' W 037°51'1 0.8 24.4
2018-Jun-20 20:00N 19°55' W 037°50'1 0.8 24.4
2018-Jun-20 19:00N 19°56' W 037°50'1 0.6 24.4
2018-Jun-20 18:00N 19°56' W 037°49'1 0.6 24.4
2018-Jun-20 17:00N 19°56' W 037°49'1 0.6 24.6
2018-Jun-20 16:00N 19°56' W 037°48'1 0.8 24.5
2018-Jun-20 15:00N 19°55' W 037°47'1 0.6 24.3
2018-Jun-20 14:05N 19°55' W 037°47'0 0.0 24.2
2018-Jun-20 14:00N 19°55' W 037°47'1 0.6 24.2
2018-Jun-20 13:05N 19°55' W 037°46'0 0.0 24.1
2018-Jun-20 13:00N 19°55' W 037°46'1 1.2 24.1
2018-Jun-20 12:04N 19°55' W 037°45'0 0.0 24.1
2018-Jun-20 12:00N 19°55' W 037°45'1 0.6 24.1
2018-Jun-20 11:04N 19°55' W 037°44'0 0.0 24.0
2018-Jun-20 11:00N 19°55' W 037°44'1 0.9 24.0
2018-Jun-20 10:05N 19°56' W 037°44'0 0.0 24.1
2018-Jun-20 10:00N 19°56' W 037°44'1 1.2 24.1
2018-Jun-20 09:05N 19°56' W 037°43'0 0.0 24.1
2018-Jun-20 09:00N 19°56' W 037°43'1 0.6 24.1
2018-Jun-20 08:04N 19°56' W 037°42'0 0.0 24.2
2018-Jun-20 08:00N 19°56' W 037°42'1 0.6 24.2
2018-Jun-20 07:05N 19°56' W 037°41'0 0.0 24.2
2018-Jun-20 07:00N 19°56' W 037°41'1 0.6 24.2
2018-Jun-20 06:04N 19°56' W 037°41'0 0.0 24.2
2018-Jun-20 06:00N 19°56' W 037°41'1 0.7 24.2
2018-Jun-20 05:08N 19°56' W 037°40'0 0.0 24.2
2018-Jun-20 05:00N 19°56' W 037°40'1 0.6 24.2
2018-Jun-20 04:07N 19°56' W 037°40'0 0.0 24.2
2018-Jun-20 04:00N 19°56' W 037°40'1 0.6 24.2
2018-Jun-20 03:04N 19°56' W 037°39'0 0.0 24.3
2018-Jun-20 03:00N 19°56' W 037°39'1 0.6 24.3
2018-Jun-20 02:06N 19°56' W 037°38'0 0.0 24.3
2018-Jun-20 02:00N 19°56' W 037°38'1 0.6 24.3
2018-Jun-20 01:04N 19°56' W 037°38'0 0.0 24.4
2018-Jun-20 01:00N 19°56' W 037°38'1 0.6 24.4
2018-Jun-20 00:04N 19°56' W 037°37'0 0.0 24.5
2018-Jun-20 00:00N 19°56' W 037°37'1 0.6 24.5
2018-Jun-19 23:04N 19°56' W 037°37'0 0.0 24.5
2018-Jun-19 23:00N 19°56' W 037°37'0 0.0 24.5
2018-Jun-19 22:08N 19°56' W 037°37'0 0.0 24.6
2018-Jun-19 22:00N 19°56' W 037°37'1 0.9 24.6
2018-Jun-19 21:04N 19°55' W 037°36'0 0.0 24.6
2018-Jun-19 21:00N 19°55' W 037°36'0 0.0 24.7
2018-Jun-19 20:06N 19°55' W 037°36'0 0.0 24.7
2018-Jun-19 20:00N 19°55' W 037°36'1 1.0 24.7
2018-Jun-19 19:08N 19°55' W 037°35'0 0.0 24.8
2018-Jun-19 19:00N 19°55' W 037°35'1 0.9 24.8
2018-Jun-19 18:04N 19°54' W 037°35'0 0.0 24.8
2018-Jun-19 18:00N 19°54' W 037°35'1 0.6 24.8
2018-Jun-19 17:05N 19°54' W 037°34'0 0.0 24.9
2018-Jun-19 17:00N 19°54' W 037°34'1 0.9 24.9
2018-Jun-19 16:04N 19°53' W 037°34'0 0.0 24.8
2018-Jun-19 16:00N 19°53' W 037°34'1 0.9 24.8
2018-Jun-19 15:05N 19°53' W 037°33'0 0.0 24.8
2018-Jun-19 15:00N 19°53' W 037°33'1 0.6 24.8
2018-Jun-19 14:05N 19°53' W 037°32'0 0.0 24.7
2018-Jun-19 14:00N 19°53' W 037°32'1 0.9 24.7
2018-Jun-19 13:05N 19°52' W 037°32'0 0.0 24.5
2018-Jun-19 13:00N 19°52' W 037°32'0 0.0 24.5
2018-Jun-19 12:05N 19°52' W 037°32'0 0.0 24.4
2018-Jun-19 12:00N 19°52' W 037°32'1 0.6 24.4
2018-Jun-19 11:00N 19°52' W 037°31'0 0.0 24.2
2018-Jun-19 10:05N 19°52' W 037°31'0 0.0 24.1
2018-Jun-19 10:00N 19°52' W 037°31'1 0.9 24.1
2018-Jun-19 09:06N 19°53' W 037°31'0 0.0 24.1
2018-Jun-19 09:00N 19°53' W 037°31'0 0.0 24.1
2018-Jun-19 07:04N 19°53' W 037°31'0 0.0 24.1
2018-Jun-19 07:00N 19°53' W 037°31'0 0.0 24.2
2018-Jun-19 06:06N 19°53' W 037°31'0 0.0 24.2
2018-Jun-19 06:00N 19°53' W 037°31'0 0.0 24.2
2018-Jun-19 05:07N 19°53' W 037°31'0 0.0 24.2
2018-Jun-19 05:00N 19°53' W 037°31'1 0.6 24.2
2018-Jun-19 04:04N 19°52' W 037°31'0 0.0 24.2
2018-Jun-19 04:00N 19°52' W 037°31'0 0.0 24.2
2018-Jun-19 03:08N 19°52' W 037°31'0 0.0 24.2
2018-Jun-19 03:00N 19°52' W 037°31'1 0.6 24.3
2018-Jun-19 02:04N 19°52' W 037°31'0 0.0 24.2
2018-Jun-19 02:00N 19°52' W 037°31'0 0.0 24.2
2018-Jun-19 01:00N 19°52' W 037°31'1 0.6 24.3
2018-Jun-19 00:00N 19°51' W 037°31'1 0.7 24.4
2018-Jun-18 23:05N 19°50' W 037°31'0 0.0 24.3
2018-Jun-18 23:00N 19°50' W 037°31'0 0.0 24.3
2018-Jun-18 22:00N 19°50' W 037°31'1 0.7 24.4
2018-Jun-18 21:05N 19°50' W 037°31'0 0.0 24.5
2018-Jun-18 21:00N 19°50' W 037°31'1 0.6 24.5
2018-Jun-18 20:00N 19°49' W 037°31'1 0.9 24.6
2018-Jun-18 19:04N 19°49' W 037°30'0 0.0 24.7
2018-Jun-18 19:00N 19°49' W 037°30'1 0.8 24.7
2018-Jun-18 18:00N 19°48' W 037°29'1 0.8 24.7
2018-Jun-18 17:00N 19°47' W 037°29'0 0.0 24.7
2018-Jun-18 16:05N 19°47' W 037°29'0 0.0 24.5
2018-Jun-18 16:00N 19°47' W 037°29'1 0.8 24.5
2018-Jun-18 15:00N 19°47' W 037°28'1 0.8 24.4
2018-Jun-18 14:00N 19°46' W 037°28'1 0.9 24.2
2018-Jun-18 13:04N 19°46' W 037°27'0 0.0 24.1
2018-Jun-18 13:00N 19°46' W 037°27'1 0.6 24.1
2018-Jun-18 12:04N 19°46' W 037°26'1 8.5 24.0
2018-Jun-18 12:00N 19°46' W 037°27'1 0.6 24.0
2018-Jun-18 11:00N 19°46' W 037°26'1 0.6 24.0
2018-Jun-18 10:00N 19°45' W 037°26'0 0.0 23.9
2018-Jun-18 09:04N 19°45' W 037°26'0 0.0 23.9
2018-Jun-18 09:00N 19°45' W 037°26'1 0.6 23.9
2018-Jun-18 08:00N 19°45' W 037°26'1 0.6 24.0
2018-Jun-18 07:00N 19°44' W 037°26'0 0.0 24.0
2018-Jun-18 06:00N 19°44' W 037°26'1 0.8 24.0
2018-Jun-18 05:00N 19°44' W 037°25'0 0.0 24.0
2018-Jun-18 04:00N 19°44' W 037°25'0 0.0 24.0
2018-Jun-18 03:00N 19°44' W 037°25'1 1.0 24.0
2018-Jun-18 02:08N 19°43' W 037°25'0 0.0 24.0
2018-Jun-18 02:00N 19°43' W 037°25'0 0.0 24.0
2018-Jun-18 01:00N 19°43' W 037°25'1 0.7 24.0
2018-Jun-18 00:05N 19°43' W 037°25'0 0.0 24.0
2018-Jun-18 00:00N 19°43' W 037°25'1 0.9 24.0
2018-Jun-17 23:07N 19°42' W 037°24'1 5.1 24.0
2018-Jun-17 23:00N 19°43' W 037°24'1 0.6 24.0
2018-Jun-17 22:04N 19°42' W 037°24'0 0.0 24.1
2018-Jun-17 22:00N 19°42' W 037°24'1 0.6 24.1
2018-Jun-17 21:07N 19°42' W 037°23'0 0.0 24.1
2018-Jun-17 21:00N 19°42' W 037°23'0 0.0 24.1
2018-Jun-17 20:07N 19°42' W 037°23'0 0.0 24.2
2018-Jun-17 20:00N 19°42' W 037°23'1 0.6 24.2
2018-Jun-17 19:06N 19°42' W 037°23'0 0.0 24.2
2018-Jun-17 19:00N 19°42' W 037°23'1 0.7 24.2
2018-Jun-17 18:05N 19°41' W 037°23'1 7.2 24.3
2018-Jun-17 18:00N 19°42' W 037°23'1 0.9 24.3
2018-Jun-17 17:05N 19°41' W 037°22'0 0.0 24.4
2018-Jun-17 17:00N 19°41' W 037°22'1 0.7 24.4
2018-Jun-17 16:09N 19°41' W 037°22'0 0.0 24.3
2018-Jun-17 16:00N 19°41' W 037°22'1 0.6 24.3
2018-Jun-17 15:04N 19°41' W 037°21'0 0.0 24.3
2018-Jun-17 15:00N 19°41' W 037°21'1 0.6 24.3
2018-Jun-17 14:04N 19°41' W 037°20'0 0.0 24.2
2018-Jun-17 14:00N 19°41' W 037°20'1 0.6 24.2
2018-Jun-17 13:05N 19°41' W 037°20'0 0.0 24.1
2018-Jun-17 13:00N 19°41' W 037°20'1 0.7 24.1
2018-Jun-17 12:05N 19°41' W 037°20'0 0.0 24.0
2018-Jun-17 12:00N 19°41' W 037°20'1 0.6 24.0
2018-Jun-17 11:05N 19°41' W 037°19'0 0.0 23.9
2018-Jun-17 11:00N 19°41' W 037°19'0 0.0 23.9
2018-Jun-17 10:04N 19°41' W 037°19'0 0.0 23.9
2018-Jun-17 10:00N 19°41' W 037°19'0 0.0 23.9
2018-Jun-17 09:07N 19°41' W 037°19'0 0.0 23.9
2018-Jun-17 09:00N 19°41' W 037°19'1 0.6 23.9
2018-Jun-17 08:05N 19°41' W 037°19'1 6.8 23.9
2018-Jun-17 08:00N 19°41' W 037°19'1 0.9 23.9
2018-Jun-17 07:05N 19°40' W 037°19'1 7.2 23.9
2018-Jun-17 07:00N 19°41' W 037°19'1 0.7 23.9
2018-Jun-17 06:05N 19°40' W 037°19'0 0.0 23.9
2018-Jun-17 06:00N 19°40' W 037°19'1 0.6 23.9
2018-Jun-17 05:03N 19°40' W 037°19'0 0.0 23.9
2018-Jun-17 05:00N 19°40' W 037°19'1 0.6 23.9
2018-Jun-17 04:04N 19°40' W 037°18'0 0.0 23.9
2018-Jun-17 04:00N 19°40' W 037°18'0 0.0 23.9
2018-Jun-17 03:00N 19°40' W 037°18'1 0.6 23.9
2018-Jun-17 02:06N 19°40' W 037°17'0 0.0 23.9
2018-Jun-17 02:00N 19°40' W 037°17'1 0.6 23.9
2018-Jun-17 01:05N 19°40' W 037°17'0 0.0 23.9
2018-Jun-17 01:00N 19°40' W 037°17'0 0.0 24.0
2018-Jun-17 00:06N 19°40' W 037°17'0 0.0 24.0
2018-Jun-17 00:00N 19°40' W 037°17'1 0.6 24.0
2018-Jun-16 23:04N 19°40' W 037°16'0 0.0 24.0
2018-Jun-16 23:00N 19°40' W 037°16'0 0.0 24.0
2018-Jun-16 22:06N 19°40' W 037°16'0 0.0 24.0
2018-Jun-16 22:00N 19°40' W 037°16'1 0.6 24.0
2018-Jun-16 21:05N 19°40' W 037°16'0 0.0 24.0
2018-Jun-16 21:00N 19°40' W 037°16'1 0.6 24.0
2018-Jun-16 20:00N 19°40' W 037°15'0 0.0 24.1
2018-Jun-16 19:04N 19°40' W 037°15'0 0.0 24.1
2018-Jun-16 19:00N 19°40' W 037°15'1 0.9 24.1
2018-Jun-16 18:04N 19°39' W 037°14'0 0.0 24.1
2018-Jun-16 18:00N 19°39' W 037°14'1 0.6 24.1
2018-Jun-16 17:06N 19°39' W 037°14'0 0.0 24.1
2018-Jun-16 17:00N 19°39' W 037°14'1 0.9 24.1
2018-Jun-16 16:05N 19°40' W 037°13'0 0.0 24.1
2018-Jun-16 16:00N 19°40' W 037°13'0 0.0 24.1
2018-Jun-16 15:04N 19°40' W 037°13'0 0.0 24.0
2018-Jun-16 15:00N 19°40' W 037°13'1 0.6 24.0
2018-Jun-16 14:06N 19°40' W 037°13'0 0.0 24.0
2018-Jun-16 14:00N 19°40' W 037°13'1 0.6 24.0
2018-Jun-16 13:04N 19°40' W 037°12'0 0.0 23.9
2018-Jun-16 13:00N 19°40' W 037°12'0 0.0 23.9
2018-Jun-16 12:06N 19°40' W 037°12'0 0.0 23.9
2018-Jun-16 12:00N 19°40' W 037°12'1 0.6 23.9
2018-Jun-16 11:05N 19°40' W 037°11'0 0.0 23.9
2018-Jun-16 11:00N 19°40' W 037°11'1 0.6 23.9
2018-Jun-16 10:05N 19°40' W 037°11'0 0.0 23.8
2018-Jun-16 10:00N 19°40' W 037°11'0 0.0 23.8
2018-Jun-16 09:00N 19°40' W 037°11'1 0.6 23.8
2018-Jun-16 08:04N 19°40' W 037°10'0 0.0 23.8
2018-Jun-16 08:00N 19°40' W 037°10'1 0.6 23.8
2018-Jun-16 07:05N 19°40' W 037°10'0 0.0 23.8
2018-Jun-16 07:00N 19°40' W 037°10'0 0.0 23.8
2018-Jun-16 06:01N 19°40' W 037°10'0 0.0 23.8
2018-Jun-16 06:00N 19°40' W 037°10'1 0.6 23.8
2018-Jun-16 05:05N 19°40' W 037°09'0 0.0 23.8
2018-Jun-16 05:00N 19°40' W 037°09'1 0.6 23.8
2018-Jun-16 04:00N 19°40' W 037°08'1 0.6 23.9
2018-Jun-16 03:05N 19°40' W 037°08'0 0.0 23.8
2018-Jun-16 03:00N 19°40' W 037°08'1 0.6 23.8
2018-Jun-16 02:04N 19°40' W 037°07'0 0.0 23.9
2018-Jun-16 02:00N 19°40' W 037°07'1 0.7 23.9
2018-Jun-16 01:05N 19°39' W 037°07'1 7.2 23.8
2018-Jun-16 01:00N 19°40' W 037°07'1 0.9 23.8
2018-Jun-16 00:04N 19°39' W 037°07'0 0.0 23.9
2018-Jun-16 00:00N 19°39' W 037°07'1 0.6 23.9
2018-Jun-15 23:04N 19°39' W 037°06'0 0.0 23.9
2018-Jun-15 23:00N 19°39' W 037°06'1 0.6 23.9
2018-Jun-15 22:06N 19°39' W 037°05'0 0.0 23.9
2018-Jun-15 22:00N 19°39' W 037°05'1 0.7 23.9
2018-Jun-15 21:08N 19°39' W 037°05'0 0.0 23.9
2018-Jun-15 21:00N 19°39' W 037°05'1 0.6 23.9
2018-Jun-15 20:05N 19°39' W 037°04'0 0.0 23.9
2018-Jun-15 20:00N 19°39' W 037°04'1 0.6 23.9
2018-Jun-15 19:00N 19°39' W 037°04'1 0.7 23.9
2018-Jun-15 18:08N 19°39' W 037°03'0 0.0 23.9
2018-Jun-15 18:00N 19°39' W 037°03'1 0.9 23.9
2018-Jun-15 17:05N 19°40' W 037°02'0 0.0 23.9
2018-Jun-15 17:00N 19°40' W 037°02'1 0.6 23.9
2018-Jun-15 16:05N 19°40' W 037°02'0 0.0 23.9
2018-Jun-15 16:00N 19°40' W 037°02'0 0.0 23.9
2018-Jun-15 15:08N 19°40' W 037°02'0 0.0 23.9
2018-Jun-15 15:00N 19°40' W 037°02'1 0.9 23.9
2018-Jun-15 14:04N 19°40' W 037°01'0 0.0 23.9
2018-Jun-15 14:00N 19°40' W 037°01'1 0.7 23.9
2018-Jun-15 13:05N 19°40' W 037°01'0 0.0 23.8
2018-Jun-15 13:00N 19°40' W 037°01'1 0.6 23.8
2018-Jun-15 12:06N 19°40' W 037°01'0 0.0 23.8
2018-Jun-15 12:00N 19°40' W 037°01'0 0.0 23.8
2018-Jun-15 11:07N 19°40' W 037°01'0 0.0 23.7
2018-Jun-15 11:00N 19°40' W 037°01'1 0.6 23.7
2018-Jun-15 10:07N 19°40' W 037°00'0 0.0 23.8
2018-Jun-15 10:00N 19°40' W 037°00'1 0.6 23.8
2018-Jun-15 09:04N 19°40' W 036°59'0 0.0 23.8
2018-Jun-15 09:00N 19°40' W 036°59'1 0.9 23.8
2018-Jun-15 08:07N 19°40' W 036°59'0 0.0 23.8
2018-Jun-15 08:00N 19°40' W 036°59'1 0.6 23.8
2018-Jun-15 07:05N 19°40' W 036°58'0 0.0 23.8
2018-Jun-15 07:00N 19°40' W 036°58'1 0.6 23.8
2018-Jun-15 06:06N 19°40' W 036°58'0 0.0 23.8
2018-Jun-15 06:00N 19°40' W 036°58'1 0.9 23.8
2018-Jun-15 05:05N 19°41' W 036°57'0 0.0 23.8
2018-Jun-15 05:00N 19°41' W 036°57'1 0.6 23.8
2018-Jun-15 04:07N 19°41' W 036°56'0 0.0 23.8
2018-Jun-15 04:00N 19°41' W 036°56'1 0.9 23.8
2018-Jun-15 03:04N 19°41' W 036°56'1 8.5 23.8
2018-Jun-15 03:00N 19°41' W 036°56'1 0.9 23.8
2018-Jun-15 02:05N 19°42' W 036°56'0 0.0 23.8
2018-Jun-15 02:00N 19°42' W 036°56'1 0.9 23.8
2018-Jun-15 01:06N 19°43' W 036°55'0 0.0 23.8
2018-Jun-15 01:00N 19°43' W 036°55'1 0.7 23.8
2018-Jun-15 00:07N 19°43' W 036°55'0 0.0 23.8
2018-Jun-15 00:00N 19°43' W 036°55'1 0.9 23.8
2018-Jun-14 23:05N 19°44' W 036°55'0 0.0 23.8
2018-Jun-14 23:00N 19°44' W 036°55'0 0.0 23.8
2018-Jun-14 22:04N 19°44' W 036°55'0 0.0 23.9
2018-Jun-14 22:00N 19°44' W 036°55'1 0.6 23.9
2018-Jun-14 21:07N 19°44' W 036°54'0 0.0 23.9
2018-Jun-14 21:00N 19°44' W 036°54'0 0.0 23.9
2018-Jun-14 20:05N 19°44' W 036°54'0 0.0 23.9
2018-Jun-14 20:00N 19°44' W 036°54'1 0.6 23.9
2018-Jun-14 19:04N 19°44' W 036°53'0 0.0 23.9
2018-Jun-14 19:00N 19°44' W 036°53'1 1.2 23.9
2018-Jun-14 18:05N 19°44' W 036°52'0 0.0 23.9
2018-Jun-14 18:00N 19°44' W 036°52'1 0.7 23.9
2018-Jun-14 17:08N 19°44' W 036°52'0 0.0 23.9
2018-Jun-14 17:00N 19°44' W 036°52'1 0.6 23.9
2018-Jun-14 16:05N 19°44' W 036°51'0 0.0 23.9
2018-Jun-14 16:00N 19°44' W 036°51'1 0.6 23.9
2018-Jun-14 15:05N 19°44' W 036°50'0 0.0 23.8
2018-Jun-14 15:00N 19°44' W 036°50'1 1.1 23.8
2018-Jun-14 14:00N 19°44' W 036°49'1 0.9 23.8
2018-Jun-14 13:06N 19°44' W 036°49'1 5.6 23.7
2018-Jun-14 13:00N 19°44' W 036°49'1 0.6 23.7
2018-Jun-14 12:01N 19°44' W 036°49'0 0.0 23.7
2018-Jun-14 12:00N 19°44' W 036°49'1 0.8 23.7
2018-Jun-14 11:00N 19°45' W 036°48'1 0.6 23.6
2018-Jun-14 10:04N 19°45' W 036°47'1 8.5 23.6
2018-Jun-14 10:00N 19°45' W 036°48'1 0.7 23.6
2018-Jun-14 09:08N 19°45' W 036°47'0 0.0 23.6
2018-Jun-14 09:00N 19°45' W 036°47'1 0.6 23.6
2018-Jun-14 08:05N 19°45' W 036°47'0 0.0 23.6
2018-Jun-14 08:00N 19°45' W 036°47'1 0.6 23.7
2018-Jun-14 07:06N 19°45' W 036°46'1 5.6 23.7
2018-Jun-14 07:00N 19°45' W 036°47'1 0.6 23.7
2018-Jun-14 06:00N 19°45' W 036°46'1 0.6 23.7
2018-Jun-14 05:04N 19°45' W 036°46'0 0.0 23.7
2018-Jun-14 05:00N 19°45' W 036°46'1 0.6 23.7
2018-Jun-14 04:00N 19°45' W 036°45'1 0.6 23.7
2018-Jun-14 03:04N 19°45' W 036°44'0 0.0 23.7
2018-Jun-14 03:00N 19°45' W 036°44'1 0.9 23.7
2018-Jun-14 02:06N 19°46' W 036°44'0 0.0 23.7
2018-Jun-14 02:00N 19°46' W 036°44'1 1.3 23.7
2018-Jun-14 01:07N 19°46' W 036°43'0 0.0 23.7
2018-Jun-14 01:00N 19°46' W 036°43'1 0.9 23.7
2018-Jun-14 00:04N 19°46' W 036°42'0 0.0 23.7
2018-Jun-14 00:00N 19°46' W 036°42'1 0.9 23.7
2018-Jun-13 23:04N 19°47' W 036°41'0 0.0 23.7
2018-Jun-13 23:00N 19°47' W 036°41'0 0.0 23.7
2018-Jun-13 22:08N 19°47' W 036°41'0 0.0 23.7
2018-Jun-13 22:00N 19°47' W 036°41'1 0.6 23.7
2018-Jun-13 21:04N 19°47' W 036°41'0 0.0 23.7
2018-Jun-13 21:00N 19°47' W 036°41'1 0.6 23.7
2018-Jun-13 20:06N 19°47' W 036°40'0 0.0 23.8
2018-Jun-13 20:00N 19°47' W 036°40'0 0.0 23.8
2018-Jun-13 19:04N 19°47' W 036°40'0 0.0 23.8
2018-Jun-13 19:00N 19°47' W 036°40'1 0.9 23.8
2018-Jun-13 18:04N 19°47' W 036°40'0 0.0 23.8
2018-Jun-13 18:00N 19°47' W 036°40'1 0.6 23.8
2018-Jun-13 17:00N 19°47' W 036°39'1 0.7 23.7
2018-Jun-13 16:08N 19°47' W 036°38'0 0.0 23.7
2018-Jun-13 16:00N 19°47' W 036°38'1 0.9 23.7
2018-Jun-13 15:04N 19°48' W 036°38'0 0.0 23.7
2018-Jun-13 15:00N 19°48' W 036°38'0 0.0 23.7
2018-Jun-13 14:07N 19°48' W 036°38'0 0.0 23.7
2018-Jun-13 14:00N 19°48' W 036°38'1 0.6 23.7
2018-Jun-13 13:04N 19°48' W 036°37'0 0.0 23.6
2018-Jun-13 13:00N 19°48' W 036°37'1 0.6 23.7
2018-Jun-13 12:05N 19°48' W 036°37'0 0.0 23.6
2018-Jun-13 12:00N 19°48' W 036°37'1 0.6 23.6
2018-Jun-13 11:01N 19°48' W 036°36'0 0.0 23.6
2018-Jun-13 11:00N 19°48' W 036°36'1 0.8 23.6
2018-Jun-13 10:00N 19°49' W 036°35'1 0.6 23.6
2018-Jun-13 09:01N 19°49' W 036°35'0 0.0 23.6
2018-Jun-13 09:00N 19°49' W 036°35'1 0.6 23.6
2018-Jun-13 08:05N 19°49' W 036°34'1 6.8 23.6
2018-Jun-13 08:00N 19°49' W 036°35'1 0.6 23.6
2018-Jun-13 07:05N 19°49' W 036°34'0 0.0 23.6
2018-Jun-13 07:00N 19°49' W 036°34'1 0.6 23.6
2018-Jun-13 06:05N 19°49' W 036°34'0 0.0 23.6
2018-Jun-13 06:00N 19°49' W 036°34'1 0.9 23.6
2018-Jun-13 05:05N 19°49' W 036°33'0 0.0 23.6
2018-Jun-13 05:00N 19°49' W 036°33'1 0.6 23.6
2018-Jun-13 04:04N 19°49' W 036°32'0 0.0 23.6
2018-Jun-13 04:00N 19°49' W 036°32'1 0.6 23.6
2018-Jun-13 03:06N 19°49' W 036°32'0 0.0 23.6
2018-Jun-13 03:00N 19°49' W 036°32'1 0.6 23.6
2018-Jun-13 02:05N 19°49' W 036°31'0 0.0 23.6
2018-Jun-13 02:00N 19°49' W 036°31'1 0.6 23.6
2018-Jun-13 01:07N 19°49' W 036°31'0 0.0 23.6
2018-Jun-13 01:00N 19°49' W 036°31'1 0.9 23.6
2018-Jun-13 00:07N 19°50' W 036°30'0 0.0 23.6
2018-Jun-13 00:00N 19°50' W 036°30'1 0.6 23.6
2018-Jun-12 23:04N 19°50' W 036°29'0 0.0 23.6
2018-Jun-12 23:00N 19°50' W 036°29'1 0.6 23.6
2018-Jun-12 22:05N 19°50' W 036°29'0 0.0 23.6
2018-Jun-12 22:00N 19°50' W 036°29'1 0.7 23.6
2018-Jun-12 21:09N 19°50' W 036°28'0 0.0 23.6
2018-Jun-12 21:00N 19°50' W 036°28'1 1.2 23.6
2018-Jun-12 20:05N 19°50' W 036°27'0 0.0 23.6
2018-Jun-12 20:00N 19°50' W 036°27'1 0.6 23.7
2018-Jun-12 19:04N 19°50' W 036°26'0 0.0 23.7
2018-Jun-12 19:00N 19°50' W 036°26'1 0.9 23.7
2018-Jun-12 18:06N 19°50' W 036°26'0 0.0 23.7
2018-Jun-12 18:00N 19°50' W 036°26'1 0.9 23.7
2018-Jun-12 17:05N 19°51' W 036°25'0 0.0 23.7
2018-Jun-12 17:00N 19°51' W 036°25'1 0.6 23.7
2018-Jun-12 16:05N 19°51' W 036°25'0 0.0 23.7
2018-Jun-12 16:00N 19°51' W 036°25'1 0.6 23.7
2018-Jun-12 15:07N 19°51' W 036°24'1 5.1 23.7
2018-Jun-12 15:00N 19°52' W 036°24'1 0.6 23.7
2018-Jun-12 14:04N 19°52' W 036°23'0 0.0 23.6
2018-Jun-12 14:00N 19°52' W 036°23'0 0.0 23.6
2018-Jun-12 13:08N 19°52' W 036°23'0 0.0 23.6
2018-Jun-12 13:00N 19°52' W 036°23'1 0.6 23.6
2018-Jun-12 12:04N 19°52' W 036°23'0 0.0 23.6
2018-Jun-12 12:00N 19°52' W 036°23'1 0.6 23.6
2018-Jun-12 11:05N 19°52' W 036°22'0 0.0 23.6
2018-Jun-12 11:00N 19°52' W 036°22'1 0.6 23.6
2018-Jun-12 10:07N 19°52' W 036°22'0 0.0 23.6
2018-Jun-12 10:00N 19°52' W 036°22'1 0.6 23.6
2018-Jun-12 09:01N 19°52' W 036°21'0 0.0 23.6
2018-Jun-12 09:00N 19°52' W 036°21'1 0.9 23.6
2018-Jun-12 08:05N 19°52' W 036°20'0 0.0 23.7
2018-Jun-12 08:00N 19°52' W 036°20'1 1.1 23.7
2018-Jun-12 07:00N 19°52' W 036°19'   23.6
Track history (hours):
 
Tides and Currents Weather Stations Pressure Air Temp Water Temp Dewpoint Dewpoint Depression Visibility Wind Speed Wind Dir Waves Ship Positions

Drifting buoy 47584

Last reported at 2018-Jun-22 06:06 UTC. Time now 2018-Jun-22 07:47 UTC.
Position N 19°50' W 038°10'.

Water temperature 24.2 ° C

Date/timePositionNaut miles runAvg speedWind from/ knotsBaromVisibWave heightAir tempDewpointWater temp
2018-Jun-22 06:06N 19°50' W 038°10'0 0.0 24.2
2018-Jun-22 06:00N 19°50' W 038°10'1 0.6 24.2
2018-Jun-22 05:05N 19°50' W 038°09'0 0.0 24.2
2018-Jun-22 05:00N 19°50' W 038°09'1 1.2 24.2
2018-Jun-22 04:04N 19°50' W 038°08'1 9.0 24.2
2018-Jun-22 04:00N 19°50' W 038°08'1 0.9 24.2
2018-Jun-22 03:05N 19°50' W 038°07'0 0.0 24.2
2018-Jun-22 03:00N 19°50' W 038°07'1 0.9 24.3
2018-Jun-22 02:05N 19°50' W 038°07'0 0.0 24.3
2018-Jun-22 02:00N 19°50' W 038°07'1 0.6 24.3
2018-Jun-22 01:04N 19°50' W 038°06'0 0.0 24.3
2018-Jun-22 01:00N 19°50' W 038°06'1 1.0 24.3
2018-Jun-22 00:08N 19°51' W 038°05'0 0.0 24.3
2018-Jun-22 00:00N 19°51' W 038°05'1 0.6 24.3
2018-Jun-21 23:00N 19°52' W 038°05'1 0.6 24.4
2018-Jun-21 22:05N 19°52' W 038°05'0 0.0 24.4
2018-Jun-21 22:00N 19°52' W 038°05'1 0.6 24.4
2018-Jun-21 21:04N 19°52' W 038°04'0 0.0 24.4
2018-Jun-21 21:00N 19°52' W 038°04'0 0.0 24.4
2018-Jun-21 20:05N 19°52' W 038°04'0 0.0 24.4
2018-Jun-21 20:00N 19°52' W 038°04'1 0.6 24.4
2018-Jun-21 19:06N 19°52' W 038°04'0 0.0 24.5
2018-Jun-21 19:00N 19°52' W 038°04'1 1.3 24.5
2018-Jun-21 18:06N 19°52' W 038°02'0 0.0 24.5
2018-Jun-21 18:00N 19°52' W 038°02'1 0.6 24.5
2018-Jun-21 17:04N 19°52' W 038°02'1 9.0 24.6
2018-Jun-21 17:00N 19°52' W 038°02'1 0.6 24.6
2018-Jun-21 16:05N 19°52' W 038°01'0 0.0 24.5
2018-Jun-21 16:00N 19°52' W 038°01'1 0.7 24.5
2018-Jun-21 15:08N 19°52' W 038°01'0 0.0 24.5
2018-Jun-21 15:00N 19°52' W 038°01'1 0.6 24.5
2018-Jun-21 14:04N 19°52' W 038°00'0 0.0 24.4
2018-Jun-21 14:00N 19°52' W 038°00'1 0.6 24.4
2018-Jun-21 13:04N 19°52' W 037°59'0 0.0 24.3
2018-Jun-21 13:00N 19°52' W 037°59'1 0.9 24.3
2018-Jun-21 12:04N 19°53' W 037°59'0 0.0 24.3
2018-Jun-21 12:00N 19°53' W 037°59'1 0.6 24.3
2018-Jun-21 11:05N 19°53' W 037°58'0 0.0 24.2
2018-Jun-21 11:00N 19°53' W 037°58'1 0.6 24.2
2018-Jun-21 10:05N 19°53' W 037°58'1 9.9 24.2
2018-Jun-21 10:00N 19°53' W 037°58'1 0.6 24.2
2018-Jun-21 09:00N 19°53' W 037°58'1 0.6 24.2
2018-Jun-21 08:05N 19°53' W 037°57'1 7.2 24.2
2018-Jun-21 08:00N 19°54' W 037°57'1 0.6 24.2
2018-Jun-21 07:05N 19°54' W 037°56'0 0.0 24.2
2018-Jun-21 07:00N 19°54' W 037°56'1 0.9 24.2
2018-Jun-21 06:06N 19°55' W 037°56'0 0.0 24.2
2018-Jun-21 06:00N 19°55' W 037°56'1 0.6 24.2
2018-Jun-21 05:04N 19°55' W 037°55'0 0.0 24.2
2018-Jun-21 05:00N 19°55' W 037°55'0 0.0 24.2
2018-Jun-21 04:04N 19°55' W 037°55'0 0.0 24.2
2018-Jun-21 04:00N 19°55' W 037°55'1 0.9 24.2
2018-Jun-21 03:04N 19°54' W 037°55'0 0.0 24.2
2018-Jun-21 03:00N 19°54' W 037°55'1 0.6 24.3
2018-Jun-21 02:04N 19°54' W 037°54'0 0.0 24.3
2018-Jun-21 02:00N 19°54' W 037°54'1 0.6 24.3
2018-Jun-21 01:00N 19°54' W 037°53'1 0.6 24.3
2018-Jun-21 00:00N 19°54' W 037°53'1 0.8 24.3
2018-Jun-20 23:00N 19°55' W 037°52'1 0.6 24.3
2018-Jun-20 22:00N 19°55' W 037°52'1 0.6 24.3
2018-Jun-20 21:00N 19°55' W 037°51'1 0.8 24.4
2018-Jun-20 20:00N 19°55' W 037°50'1 0.8 24.4
2018-Jun-20 19:00N 19°56' W 037°50'1 0.6 24.4
2018-Jun-20 18:00N 19°56' W 037°49'1 0.6 24.4
2018-Jun-20 17:00N 19°56' W 037°49'1 0.6 24.6
2018-Jun-20 16:00N 19°56' W 037°48'1 0.8 24.5
2018-Jun-20 15:00N 19°55' W 037°47'1 0.6 24.3
2018-Jun-20 14:05N 19°55' W 037°47'0 0.0 24.2
2018-Jun-20 14:00N 19°55' W 037°47'1 0.6 24.2
2018-Jun-20 13:05N 19°55' W 037°46'0 0.0 24.1
2018-Jun-20 13:00N 19°55' W 037°46'1 1.2 24.1
2018-Jun-20 12:04N 19°55' W 037°45'0 0.0 24.1
2018-Jun-20 12:00N 19°55' W 037°45'1 0.6 24.1
2018-Jun-20 11:04N 19°55' W 037°44'0 0.0 24.0
2018-Jun-20 11:00N 19°55' W 037°44'1 0.9 24.0
2018-Jun-20 10:05N 19°56' W 037°44'0 0.0 24.1
2018-Jun-20 10:00N 19°56' W 037°44'1 1.2 24.1
2018-Jun-20 09:05N 19°56' W 037°43'0 0.0 24.1
2018-Jun-20 09:00N 19°56' W 037°43'1 0.6 24.1
2018-Jun-20 08:04N 19°56' W 037°42'0 0.0 24.2
2018-Jun-20 08:00N 19°56' W 037°42'1 0.6 24.2
2018-Jun-20 07:05N 19°56' W 037°41'0 0.0 24.2
2018-Jun-20 07:00N 19°56' W 037°41'1 0.6 24.2
2018-Jun-20 06:04N 19°56' W 037°41'0 0.0 24.2
2018-Jun-20 06:00N 19°56' W 037°41'1 0.7 24.2
2018-Jun-20 05:08N 19°56' W 037°40'0 0.0 24.2
2018-Jun-20 05:00N 19°56' W 037°40'1 0.6 24.2
2018-Jun-20 04:07N 19°56' W 037°40'0 0.0 24.2
2018-Jun-20 04:00N 19°56' W 037°40'1 0.6 24.2
2018-Jun-20 03:04N 19°56' W 037°39'0 0.0 24.3
2018-Jun-20 03:00N 19°56' W 037°39'1 0.6 24.3
2018-Jun-20 02:06N 19°56' W 037°38'0 0.0 24.3
2018-Jun-20 02:00N 19°56' W 037°38'1 0.6 24.3
2018-Jun-20 01:04N 19°56' W 037°38'0 0.0 24.4
2018-Jun-20 01:00N 19°56' W 037°38'1 0.6 24.4
2018-Jun-20 00:04N 19°56' W 037°37'0 0.0 24.5
2018-Jun-20 00:00N 19°56' W 037°37'1 0.6 24.5
2018-Jun-19 23:04N 19°56' W 037°37'0 0.0 24.5
2018-Jun-19 23:00N 19°56' W 037°37'0 0.0 24.5
2018-Jun-19 22:08N 19°56' W 037°37'0 0.0 24.6
2018-Jun-19 22:00N 19°56' W 037°37'1 0.9 24.6
2018-Jun-19 21:04N 19°55' W 037°36'0 0.0 24.6
2018-Jun-19 21:00N 19°55' W 037°36'0 0.0 24.7
2018-Jun-19 20:06N 19°55' W 037°36'0 0.0 24.7
2018-Jun-19 20:00N 19°55' W 037°36'1 1.0 24.7
2018-Jun-19 19:08N 19°55' W 037°35'0 0.0 24.8
2018-Jun-19 19:00N 19°55' W 037°35'1 0.9 24.8
2018-Jun-19 18:04N 19°54' W 037°35'0 0.0 24.8
2018-Jun-19 18:00N 19°54' W 037°35'1 0.6 24.8
2018-Jun-19 17:05N 19°54' W 037°34'0 0.0 24.9
2018-Jun-19 17:00N 19°54' W 037°34'1 0.9 24.9
2018-Jun-19 16:04N 19°53' W 037°34'0 0.0 24.8
2018-Jun-19 16:00N 19°53' W 037°34'1 0.9 24.8
2018-Jun-19 15:05N 19°53' W 037°33'0 0.0 24.8
2018-Jun-19 15:00N 19°53' W 037°33'1 0.6 24.8
2018-Jun-19 14:05N 19°53' W 037°32'0 0.0 24.7
2018-Jun-19 14:00N 19°53' W 037°32'1 0.9 24.7
2018-Jun-19 13:05N 19°52' W 037°32'0 0.0 24.5
2018-Jun-19 13:00N 19°52' W 037°32'0 0.0 24.5
2018-Jun-19 12:05N 19°52' W 037°32'0 0.0 24.4
2018-Jun-19 12:00N 19°52' W 037°32'1 0.6 24.4
2018-Jun-19 11:00N 19°52' W 037°31'0 0.0 24.2
2018-Jun-19 10:05N 19°52' W 037°31'0 0.0 24.1
2018-Jun-19 10:00N 19°52' W 037°31'1 0.9 24.1
2018-Jun-19 09:06N 19°53' W 037°31'0 0.0 24.1
2018-Jun-19 09:00N 19°53' W 037°31'0 0.0 24.1
2018-Jun-19 07:04N 19°53' W 037°31'0 0.0 24.1
2018-Jun-19 07:00N 19°53' W 037°31'0 0.0 24.2
2018-Jun-19 06:06N 19°53' W 037°31'0 0.0 24.2
2018-Jun-19 06:00N 19°53' W 037°31'0 0.0 24.2
2018-Jun-19 05:07N 19°53' W 037°31'0 0.0 24.2
2018-Jun-19 05:00N 19°53' W 037°31'1 0.6 24.2
2018-Jun-19 04:04N 19°52' W 037°31'0 0.0 24.2
2018-Jun-19 04:00N 19°52' W 037°31'0 0.0 24.2
2018-Jun-19 03:08N 19°52' W 037°31'0 0.0 24.2
2018-Jun-19 03:00N 19°52' W 037°31'1 0.6 24.3
2018-Jun-19 02:04N 19°52' W 037°31'0 0.0 24.2
2018-Jun-19 02:00N 19°52' W 037°31'0 0.0 24.2
2018-Jun-19 01:00N 19°52' W 037°31'1 0.6 24.3
2018-Jun-19 00:00N 19°51' W 037°31'1 0.7 24.4
2018-Jun-18 23:05N 19°50' W 037°31'0 0.0 24.3
2018-Jun-18 23:00N 19°50' W 037°31'0 0.0 24.3
2018-Jun-18 22:00N 19°50' W 037°31'1 0.7 24.4
2018-Jun-18 21:05N 19°50' W 037°31'0 0.0 24.5
2018-Jun-18 21:00N 19°50' W 037°31'1 0.6 24.5
2018-Jun-18 20:00N 19°49' W 037°31'1 0.9 24.6
2018-Jun-18 19:04N 19°49' W 037°30'0 0.0 24.7
2018-Jun-18 19:00N 19°49' W 037°30'1 0.8 24.7
2018-Jun-18 18:00N 19°48' W 037°29'1 0.8 24.7
2018-Jun-18 17:00N 19°47' W 037°29'0 0.0 24.7
2018-Jun-18 16:05N 19°47' W 037°29'0 0.0 24.5
2018-Jun-18 16:00N 19°47' W 037°29'1 0.8 24.5
2018-Jun-18 15:00N 19°47' W 037°28'1 0.8 24.4
2018-Jun-18 14:00N 19°46' W 037°28'1 0.9 24.2
2018-Jun-18 13:04N 19°46' W 037°27'0 0.0 24.1
2018-Jun-18 13:00N 19°46' W 037°27'1 0.6 24.1
2018-Jun-18 12:04N 19°46' W 037°26'1 8.5 24.0
2018-Jun-18 12:00N 19°46' W 037°27'1 0.6 24.0
2018-Jun-18 11:00N 19°46' W 037°26'1 0.6 24.0
2018-Jun-18 10:00N 19°45' W 037°26'0 0.0 23.9
2018-Jun-18 09:04N 19°45' W 037°26'0 0.0 23.9
2018-Jun-18 09:00N 19°45' W 037°26'1 0.6 23.9
2018-Jun-18 08:00N 19°45' W 037°26'1 0.6 24.0
2018-Jun-18 07:00N 19°44' W 037°26'0 0.0 24.0
2018-Jun-18 06:00N 19°44' W 037°26'1 0.8 24.0
2018-Jun-18 05:00N 19°44' W 037°25'0 0.0 24.0
2018-Jun-18 04:00N 19°44' W 037°25'0 0.0 24.0
2018-Jun-18 03:00N 19°44' W 037°25'1 1.0 24.0
2018-Jun-18 02:08N 19°43' W 037°25'0 0.0 24.0
2018-Jun-18 02:00N 19°43' W 037°25'0 0.0 24.0
2018-Jun-18 01:00N 19°43' W 037°25'1 0.7 24.0
2018-Jun-18 00:05N 19°43' W 037°25'0 0.0 24.0
2018-Jun-18 00:00N 19°43' W 037°25'1 0.9 24.0
2018-Jun-17 23:07N 19°42' W 037°24'1 5.1 24.0
2018-Jun-17 23:00N 19°43' W 037°24'1 0.6 24.0
2018-Jun-17 22:04N 19°42' W 037°24'0 0.0 24.1
2018-Jun-17 22:00N 19°42' W 037°24'1 0.6 24.1
2018-Jun-17 21:07N 19°42' W 037°23'0 0.0 24.1
2018-Jun-17 21:00N 19°42' W 037°23'0 0.0 24.1
2018-Jun-17 20:07N 19°42' W 037°23'0 0.0 24.2
2018-Jun-17 20:00N 19°42' W 037°23'1 0.6 24.2
2018-Jun-17 19:06N 19°42' W 037°23'0 0.0 24.2
2018-Jun-17 19:00N 19°42' W 037°23'1 0.7 24.2
2018-Jun-17 18:05N 19°41' W 037°23'1 7.2 24.3
2018-Jun-17 18:00N 19°42' W 037°23'1 0.9 24.3
2018-Jun-17 17:05N 19°41' W 037°22'0 0.0 24.4
2018-Jun-17 17:00N 19°41' W 037°22'1 0.7 24.4
2018-Jun-17 16:09N 19°41' W 037°22'0 0.0 24.3
2018-Jun-17 16:00N 19°41' W 037°22'1 0.6 24.3
2018-Jun-17 15:04N 19°41' W 037°21'0 0.0 24.3
2018-Jun-17 15:00N 19°41' W 037°21'1 0.6 24.3
2018-Jun-17 14:04N 19°41' W 037°20'0 0.0 24.2
2018-Jun-17 14:00N 19°41' W 037°20'1 0.6 24.2
2018-Jun-17 13:05N 19°41' W 037°20'0 0.0 24.1
2018-Jun-17 13:00N 19°41' W 037°20'1 0.7 24.1
2018-Jun-17 12:05N 19°41' W 037°20'0 0.0 24.0
2018-Jun-17 12:00N 19°41' W 037°20'1 0.6 24.0
2018-Jun-17 11:05N 19°41' W 037°19'0 0.0 23.9
2018-Jun-17 11:00N 19°41' W 037°19'0 0.0 23.9
2018-Jun-17 10:04N 19°41' W 037°19'0 0.0 23.9
2018-Jun-17 10:00N 19°41' W 037°19'0 0.0 23.9
2018-Jun-17 09:07N 19°41' W 037°19'0 0.0 23.9
2018-Jun-17 09:00N 19°41' W 037°19'1 0.6 23.9
2018-Jun-17 08:05N 19°41' W 037°19'1 6.8 23.9
2018-Jun-17 08:00N 19°41' W 037°19'1 0.9 23.9
2018-Jun-17 07:05N 19°40' W 037°19'1 7.2 23.9
2018-Jun-17 07:00N 19°41' W 037°19'1 0.7 23.9
2018-Jun-17 06:05N 19°40' W 037°19'0 0.0 23.9
2018-Jun-17 06:00N 19°40' W 037°19'1 0.6 23.9
2018-Jun-17 05:03N 19°40' W 037°19'0 0.0 23.9
2018-Jun-17 05:00N 19°40' W 037°19'1 0.6 23.9
2018-Jun-17 04:04N 19°40' W 037°18'0 0.0 23.9
2018-Jun-17 04:00N 19°40' W 037°18'0 0.0 23.9
2018-Jun-17 03:00N 19°40' W 037°18'1 0.6 23.9
2018-Jun-17 02:06N 19°40' W 037°17'0 0.0 23.9
2018-Jun-17 02:00N 19°40' W 037°17'1 0.6 23.9
2018-Jun-17 01:05N 19°40' W 037°17'0 0.0 23.9
2018-Jun-17 01:00N 19°40' W 037°17'0 0.0 24.0
2018-Jun-17 00:06N 19°40' W 037°17'0 0.0 24.0
2018-Jun-17 00:00N 19°40' W 037°17'1 0.6 24.0
2018-Jun-16 23:04N 19°40' W 037°16'0 0.0 24.0
2018-Jun-16 23:00N 19°40' W 037°16'0 0.0 24.0
2018-Jun-16 22:06N 19°40' W 037°16'0 0.0 24.0
2018-Jun-16 22:00N 19°40' W 037°16'1 0.6 24.0
2018-Jun-16 21:05N 19°40' W 037°16'0 0.0 24.0
2018-Jun-16 21:00N 19°40' W 037°16'1 0.6 24.0
2018-Jun-16 20:00N 19°40' W 037°15'0 0.0 24.1
2018-Jun-16 19:04N 19°40' W 037°15'0 0.0 24.1
2018-Jun-16 19:00N 19°40' W 037°15'1 0.9 24.1
2018-Jun-16 18:04N 19°39' W 037°14'0 0.0 24.1
2018-Jun-16 18:00N 19°39' W 037°14'1 0.6 24.1
2018-Jun-16 17:06N 19°39' W 037°14'0 0.0 24.1
2018-Jun-16 17:00N 19°39' W 037°14'1 0.9 24.1
2018-Jun-16 16:05N 19°40' W 037°13'0 0.0 24.1
2018-Jun-16 16:00N 19°40' W 037°13'0 0.0 24.1
2018-Jun-16 15:04N 19°40' W 037°13'0 0.0 24.0
2018-Jun-16 15:00N 19°40' W 037°13'1 0.6 24.0
2018-Jun-16 14:06N 19°40' W 037°13'0 0.0 24.0
2018-Jun-16 14:00N 19°40' W 037°13'1 0.6 24.0
2018-Jun-16 13:04N 19°40' W 037°12'0 0.0 23.9
2018-Jun-16 13:00N 19°40' W 037°12'0 0.0 23.9
2018-Jun-16 12:06N 19°40' W 037°12'0 0.0 23.9
2018-Jun-16 12:00N 19°40' W 037°12'1 0.6 23.9
2018-Jun-16 11:05N 19°40' W 037°11'0 0.0 23.9
2018-Jun-16 11:00N 19°40' W 037°11'1 0.6 23.9
2018-Jun-16 10:05N 19°40' W 037°11'0 0.0 23.8
2018-Jun-16 10:00N 19°40' W 037°11'0 0.0 23.8
2018-Jun-16 09:00N 19°40' W 037°11'1 0.6 23.8
2018-Jun-16 08:04N 19°40' W 037°10'0 0.0 23.8
2018-Jun-16 08:00N 19°40' W 037°10'1 0.6 23.8
2018-Jun-16 07:05N 19°40' W 037°10'0 0.0 23.8
2018-Jun-16 07:00N 19°40' W 037°10'0 0.0 23.8
2018-Jun-16 06:01N 19°40' W 037°10'0 0.0 23.8
2018-Jun-16 06:00N 19°40' W 037°10'1 0.6 23.8
2018-Jun-16 05:05N 19°40' W 037°09'0 0.0 23.8
2018-Jun-16 05:00N 19°40' W 037°09'1 0.6 23.8
2018-Jun-16 04:00N 19°40' W 037°08'1 0.6 23.9
2018-Jun-16 03:05N 19°40' W 037°08'0 0.0 23.8
2018-Jun-16 03:00N 19°40' W 037°08'1 0.6 23.8
2018-Jun-16 02:04N 19°40' W 037°07'0 0.0 23.9
2018-Jun-16 02:00N 19°40' W 037°07'1 0.7 23.9
2018-Jun-16 01:05N 19°39' W 037°07'1 7.2 23.8
2018-Jun-16 01:00N 19°40' W 037°07'1 0.9 23.8
2018-Jun-16 00:04N 19°39' W 037°07'0 0.0 23.9
2018-Jun-16 00:00N 19°39' W 037°07'1 0.6 23.9
2018-Jun-15 23:04N 19°39' W 037°06'0 0.0 23.9
2018-Jun-15 23:00N 19°39' W 037°06'1 0.6 23.9
2018-Jun-15 22:06N 19°39' W 037°05'0 0.0 23.9
2018-Jun-15 22:00N 19°39' W 037°05'1 0.7 23.9
2018-Jun-15 21:08N 19°39' W 037°05'0 0.0 23.9
2018-Jun-15 21:00N 19°39' W 037°05'1 0.6 23.9
2018-Jun-15 20:05N 19°39' W 037°04'0 0.0 23.9
2018-Jun-15 20:00N 19°39' W 037°04'1 0.6 23.9
2018-Jun-15 19:00N 19°39' W 037°04'1 0.7 23.9
2018-Jun-15 18:08N 19°39' W 037°03'0 0.0 23.9
2018-Jun-15 18:00N 19°39' W 037°03'1 0.9 23.9
2018-Jun-15 17:05N 19°40' W 037°02'0 0.0 23.9
2018-Jun-15 17:00N 19°40' W 037°02'1 0.6 23.9
2018-Jun-15 16:05N 19°40' W 037°02'0 0.0 23.9
2018-Jun-15 16:00N 19°40' W 037°02'0 0.0 23.9
2018-Jun-15 15:08N 19°40' W 037°02'0 0.0 23.9
2018-Jun-15 15:00N 19°40' W 037°02'1 0.9 23.9
2018-Jun-15 14:04N 19°40' W 037°01'0 0.0 23.9
2018-Jun-15 14:00N 19°40' W 037°01'1 0.7 23.9
2018-Jun-15 13:05N 19°40' W 037°01'0 0.0 23.8
2018-Jun-15 13:00N 19°40' W 037°01'1 0.6 23.8
2018-Jun-15 12:06N 19°40' W 037°01'0 0.0 23.8
2018-Jun-15 12:00N 19°40' W 037°01'0 0.0 23.8
2018-Jun-15 11:07N 19°40' W 037°01'0 0.0 23.7
2018-Jun-15 11:00N 19°40' W 037°01'1 0.6 23.7
2018-Jun-15 10:07N 19°40' W 037°00'0 0.0 23.8
2018-Jun-15 10:00N 19°40' W 037°00'1 0.6 23.8
2018-Jun-15 09:04N 19°40' W 036°59'0 0.0 23.8
2018-Jun-15 09:00N 19°40' W 036°59'1 0.9 23.8
2018-Jun-15 08:07N 19°40' W 036°59'0 0.0 23.8
2018-Jun-15 08:00N 19°40' W 036°59'1 0.6 23.8
2018-Jun-15 07:05N 19°40' W 036°58'0 0.0 23.8
2018-Jun-15 07:00N 19°40' W 036°58'1 0.6 23.8
2018-Jun-15 06:06N 19°40' W 036°58'0 0.0 23.8
2018-Jun-15 06:00N 19°40' W 036°58'1 0.9 23.8
2018-Jun-15 05:05N 19°41' W 036°57'0 0.0 23.8
2018-Jun-15 05:00N 19°41' W 036°57'1 0.6 23.8
2018-Jun-15 04:07N 19°41' W 036°56'0 0.0 23.8
2018-Jun-15 04:00N 19°41' W 036°56'1 0.9 23.8
2018-Jun-15 03:04N 19°41' W 036°56'1 8.5 23.8
2018-Jun-15 03:00N 19°41' W 036°56'1 0.9 23.8
2018-Jun-15 02:05N 19°42' W 036°56'0 0.0 23.8
2018-Jun-15 02:00N 19°42' W 036°56'1 0.9 23.8
2018-Jun-15 01:06N 19°43' W 036°55'0 0.0 23.8
2018-Jun-15 01:00N 19°43' W 036°55'1 0.7 23.8
2018-Jun-15 00:07N 19°43' W 036°55'0 0.0 23.8
2018-Jun-15 00:00N 19°43' W 036°55'1 0.9 23.8
2018-Jun-14 23:05N 19°44' W 036°55'0 0.0 23.8
2018-Jun-14 23:00N 19°44' W 036°55'0 0.0 23.8
2018-Jun-14 22:04N 19°44' W 036°55'0 0.0 23.9
2018-Jun-14 22:00N 19°44' W 036°55'1 0.6 23.9
2018-Jun-14 21:07N 19°44' W 036°54'0 0.0 23.9
2018-Jun-14 21:00N 19°44' W 036°54'0 0.0 23.9
2018-Jun-14 20:05N 19°44' W 036°54'0 0.0 23.9
2018-Jun-14 20:00N 19°44' W 036°54'1 0.6 23.9
2018-Jun-14 19:04N 19°44' W 036°53'0 0.0 23.9
2018-Jun-14 19:00N 19°44' W 036°53'1 1.2 23.9
2018-Jun-14 18:05N 19°44' W 036°52'0 0.0 23.9
2018-Jun-14 18:00N 19°44' W 036°52'1 0.7 23.9
2018-Jun-14 17:08N 19°44' W 036°52'0 0.0 23.9
2018-Jun-14 17:00N 19°44' W 036°52'1 0.6 23.9
2018-Jun-14 16:05N 19°44' W 036°51'0 0.0 23.9
2018-Jun-14 16:00N 19°44' W 036°51'1 0.6 23.9
2018-Jun-14 15:05N 19°44' W 036°50'0 0.0 23.8
2018-Jun-14 15:00N 19°44' W 036°50'1 1.1 23.8
2018-Jun-14 14:00N 19°44' W 036°49'1 0.9 23.8
2018-Jun-14 13:06N 19°44' W 036°49'1 5.6 23.7
2018-Jun-14 13:00N 19°44' W 036°49'1 0.6 23.7
2018-Jun-14 12:01N 19°44' W 036°49'0 0.0 23.7
2018-Jun-14 12:00N 19°44' W 036°49'1 0.8 23.7
2018-Jun-14 11:00N 19°45' W 036°48'1 0.6 23.6
2018-Jun-14 10:04N 19°45' W 036°47'1 8.5 23.6
2018-Jun-14 10:00N 19°45' W 036°48'1 0.7 23.6
2018-Jun-14 09:08N 19°45' W 036°47'0 0.0 23.6
2018-Jun-14 09:00N 19°45' W 036°47'1 0.6 23.6
2018-Jun-14 08:05N 19°45' W 036°47'0 0.0 23.6
2018-Jun-14 08:00N 19°45' W 036°47'1 0.6 23.7
2018-Jun-14 07:06N 19°45' W 036°46'1 5.6 23.7
2018-Jun-14 07:00N 19°45' W 036°47'1 0.6 23.7
2018-Jun-14 06:00N 19°45' W 036°46'1 0.6 23.7
2018-Jun-14 05:04N 19°45' W 036°46'0 0.0 23.7
2018-Jun-14 05:00N 19°45' W 036°46'1 0.6 23.7
2018-Jun-14 04:00N 19°45' W 036°45'1 0.6 23.7
2018-Jun-14 03:04N 19°45' W 036°44'0 0.0 23.7
2018-Jun-14 03:00N 19°45' W 036°44'1 0.9 23.7
2018-Jun-14 02:06N 19°46' W 036°44'0 0.0 23.7
2018-Jun-14 02:00N 19°46' W 036°44'1 1.3 23.7
2018-Jun-14 01:07N 19°46' W 036°43'0 0.0 23.7
2018-Jun-14 01:00N 19°46' W 036°43'1 0.9 23.7
2018-Jun-14 00:04N 19°46' W 036°42'0 0.0 23.7
2018-Jun-14 00:00N 19°46' W 036°42'1 0.9 23.7
2018-Jun-13 23:04N 19°47' W 036°41'0 0.0 23.7
2018-Jun-13 23:00N 19°47' W 036°41'0 0.0 23.7
2018-Jun-13 22:08N 19°47' W 036°41'0 0.0 23.7
2018-Jun-13 22:00N 19°47' W 036°41'1 0.6 23.7
2018-Jun-13 21:04N 19°47' W 036°41'0 0.0 23.7
2018-Jun-13 21:00N 19°47' W 036°41'1 0.6 23.7
2018-Jun-13 20:06N 19°47' W 036°40'0 0.0 23.8
2018-Jun-13 20:00N 19°47' W 036°40'0 0.0 23.8
2018-Jun-13 19:04N 19°47' W 036°40'0 0.0 23.8
2018-Jun-13 19:00N 19°47' W 036°40'1 0.9 23.8
2018-Jun-13 18:04N 19°47' W 036°40'0 0.0 23.8
2018-Jun-13 18:00N 19°47' W 036°40'1 0.6 23.8
2018-Jun-13 17:00N 19°47' W 036°39'1 0.7 23.7
2018-Jun-13 16:08N 19°47' W 036°38'0 0.0 23.7
2018-Jun-13 16:00N 19°47' W 036°38'1 0.9 23.7
2018-Jun-13 15:04N 19°48' W 036°38'0 0.0 23.7
2018-Jun-13 15:00N 19°48' W 036°38'0 0.0 23.7
2018-Jun-13 14:07N 19°48' W 036°38'0 0.0 23.7
2018-Jun-13 14:00N 19°48' W 036°38'1 0.6 23.7
2018-Jun-13 13:04N 19°48' W 036°37'0 0.0 23.6
2018-Jun-13 13:00N 19°48' W 036°37'1 0.6 23.7
2018-Jun-13 12:05N 19°48' W 036°37'0 0.0 23.6
2018-Jun-13 12:00N 19°48' W 036°37'1 0.6 23.6
2018-Jun-13 11:01N 19°48' W 036°36'0 0.0 23.6
2018-Jun-13 11:00N 19°48' W 036°36'1 0.8 23.6
2018-Jun-13 10:00N 19°49' W 036°35'1 0.6 23.6
2018-Jun-13 09:01N 19°49' W 036°35'0 0.0 23.6
2018-Jun-13 09:00N 19°49' W 036°35'1 0.6 23.6
2018-Jun-13 08:05N 19°49' W 036°34'1 6.8 23.6
2018-Jun-13 08:00N 19°49' W 036°35'1 0.6 23.6
2018-Jun-13 07:05N 19°49' W 036°34'0 0.0 23.6
2018-Jun-13 07:00N 19°49' W 036°34'1 0.6 23.6
2018-Jun-13 06:05N 19°49' W 036°34'0 0.0 23.6
2018-Jun-13 06:00N 19°49' W 036°34'1 0.9 23.6
2018-Jun-13 05:05N 19°49' W 036°33'0 0.0 23.6
2018-Jun-13 05:00N 19°49' W 036°33'1 0.6 23.6
2018-Jun-13 04:04N 19°49' W 036°32'0 0.0 23.6
2018-Jun-13 04:00N 19°49' W 036°32'1 0.6 23.6
2018-Jun-13 03:06N 19°49' W 036°32'0 0.0 23.6
2018-Jun-13 03:00N 19°49' W 036°32'1 0.6 23.6
2018-Jun-13 02:05N 19°49' W 036°31'0 0.0 23.6
2018-Jun-13 02:00N 19°49' W 036°31'1 0.6 23.6
2018-Jun-13 01:07N 19°49' W 036°31'0 0.0 23.6
2018-Jun-13 01:00N 19°49' W 036°31'1 0.9 23.6
2018-Jun-13 00:07N 19°50' W 036°30'0 0.0 23.6
2018-Jun-13 00:00N 19°50' W 036°30'1 0.6 23.6
2018-Jun-12 23:04N 19°50' W 036°29'0 0.0 23.6
2018-Jun-12 23:00N 19°50' W 036°29'1 0.6 23.6
2018-Jun-12 22:05N 19°50' W 036°29'0 0.0 23.6
2018-Jun-12 22:00N 19°50' W 036°29'1 0.7 23.6
2018-Jun-12 21:09N 19°50' W 036°28'0 0.0 23.6
2018-Jun-12 21:00N 19°50' W 036°28'1 1.2 23.6
2018-Jun-12 20:05N 19°50' W 036°27'0 0.0 23.6
2018-Jun-12 20:00N 19°50' W 036°27'1 0.6 23.7
2018-Jun-12 19:04N 19°50' W 036°26'0 0.0 23.7
2018-Jun-12 19:00N 19°50' W 036°26'1 0.9 23.7
2018-Jun-12 18:06N 19°50' W 036°26'0 0.0 23.7
2018-Jun-12 18:00N 19°50' W 036°26'1 0.9 23.7
2018-Jun-12 17:05N 19°51' W 036°25'0 0.0 23.7
2018-Jun-12 17:00N 19°51' W 036°25'1 0.6 23.7
2018-Jun-12 16:05N 19°51' W 036°25'0 0.0 23.7
2018-Jun-12 16:00N 19°51' W 036°25'1 0.6 23.7
2018-Jun-12 15:07N 19°51' W 036°24'1 5.1 23.7
2018-Jun-12 15:00N 19°52' W 036°24'1 0.6 23.7
2018-Jun-12 14:04N 19°52' W 036°23'0 0.0 23.6
2018-Jun-12 14:00N 19°52' W 036°23'0 0.0 23.6
2018-Jun-12 13:08N 19°52' W 036°23'0 0.0 23.6
2018-Jun-12 13:00N 19°52' W 036°23'1 0.6 23.6
2018-Jun-12 12:04N 19°52' W 036°23'0 0.0 23.6
2018-Jun-12 12:00N 19°52' W 036°23'1 0.6 23.6
2018-Jun-12 11:05N 19°52' W 036°22'0 0.0 23.6
2018-Jun-12 11:00N 19°52' W 036°22'1 0.6 23.6
2018-Jun-12 10:07N 19°52' W 036°22'0 0.0 23.6
2018-Jun-12 10:00N 19°52' W 036°22'1 0.6 23.6
2018-Jun-12 09:01N 19°52' W 036°21'0 0.0 23.6
2018-Jun-12 09:00N 19°52' W 036°21'1 0.9 23.6
2018-Jun-12 08:05N 19°52' W 036°20'0 0.0 23.7
2018-Jun-12 08:00N 19°52' W 036°20'1 1.1 23.7
2018-Jun-12 07:00N 19°52' W 036°19'   23.6

Dump ship's entire track history